Time;durP1;ratioP1;P1;durP2;ratioP2;P2;SDS_P1;SDS_P2;PMS_P1;PMS_P2;Temp;Humidity;BMP_temperature;BMP_pressure;BME280_temperature;BME280_humidity;BME280_pressure;Samples;Min_cycle;Max_cycle;Signal;HPM_P1;HPM_P2
2022/07/22 00:01:31;;;;;;;4.15;2.30;;;17.00;97.10;;;;;;5076754;28;20071;-84
2022/07/22 00:03:57;;;;;;;3.58;3.28;;;17.00;97.10;;;;;;5087246;28;20396;-85
2022/07/22 00:06:23;;;;;;;8.00;3.47;;;17.10;97.20;;;;;;5079178;28;20020;-86
2022/07/22 00:08:50;;;;;;;4.85;3.00;;;17.00;97.20;;;;;;5079770;28;20362;-86
2022/07/22 00:11:15;;;;;;;5.28;3.20;;;17.00;97.20;;;;;;5093814;28;20146;-85
2022/07/22 00:13:41;;;;;;;4.55;2.70;;;17.00;97.30;;;;;;5102198;28;20024;-86
2022/07/22 00:16:08;;;;;;;3.45;2.60;;;17.00;97.30;;;;;;5093934;28;20074;-84
2022/07/22 00:18:34;;;;;;;3.13;2.83;;;17.00;97.30;;;;;;5104063;28;20020;-84
2022/07/22 00:21:00;;;;;;;5.80;2.90;;;17.00;97.40;;;;;;5100512;28;20040;-88
2022/07/22 00:23:26;;;;;;;5.55;2.90;;;17.00;97.40;;;;;;5115350;28;20035;-86
2022/07/22 00:25:53;;;;;;;7.63;3.15;;;17.00;97.40;;;;;;5098544;28;20036;-82
2022/07/22 00:28:19;;;;;;;3.65;2.22;;;17.00;97.50;;;;;;5112676;28;20038;-84
2022/07/22 00:30:47;;;;;;;3.90;2.70;;;16.90;97.60;;;;;;5098236;28;20032;-81
2022/07/22 00:33:13;;;;;;;9.45;3.65;;;16.90;97.70;;;;;;5091879;28;20099;-82
2022/07/22 00:35:39;;;;;;;3.58;2.55;;;16.90;97.70;;;;;;5090555;28;20048;-83
2022/07/22 00:38:05;;;;;;;2.80;2.60;;;16.90;97.70;;;;;;5073497;28;20077;-82
2022/07/22 00:40:31;;;;;;;3.80;2.92;;;16.90;97.70;;;;;;5072234;28;20024;-83
2022/07/22 00:42:56;;;;;;;3.30;3.00;;;16.90;97.70;;;;;;5092027;28;20043;-84
2022/07/22 00:45:22;;;;;;;3.17;2.65;;;16.90;97.70;;;;;;5091931;28;20027;-83
2022/07/22 00:47:48;;;;;;;4.72;3.00;;;16.90;97.80;;;;;;5070445;28;20182;-84
2022/07/22 00:50:14;;;;;;;3.40;2.72;;;16.90;97.80;;;;;;5072230;28;20052;-84
2022/07/22 00:52:41;;;;;;;5.38;2.70;;;16.90;97.80;;;;;;5072862;28;20641;-83
2022/07/22 00:55:08;;;;;;;4.67;2.40;;;16.90;97.80;;;;;;5072626;28;20096;-85
2022/07/22 00:57:34;;;;;;;3.67;3.13;;;17.00;97.80;;;;;;5076749;28;20268;-85
2022/07/22 01:00:00;;;;;;;4.95;2.58;;;16.90;97.70;;;;;;5078008;28;20016;-85
2022/07/22 01:02:26;;;;;;;2.83;2.55;;;16.90;97.80;;;;;;5087086;28;20381;-85
2022/07/22 01:04:52;;;;;;;5.57;3.05;;;16.90;97.80;;;;;;5076459;28;20104;-83
2022/07/22 01:07:18;;;;;;;3.72;2.60;;;16.90;97.80;;;;;;5078029;28;20059;-85
2022/07/22 01:09:45;;;;;;;3.47;2.65;;;16.90;97.80;;;;;;5077162;28;20095;-87
2022/07/22 01:12:11;;;;;;;2.97;2.65;;;16.90;97.80;;;;;;5080129;28;20080;-85
2022/07/22 01:14:37;;;;;;;2.90;2.70;;;17.00;97.80;;;;;;5083299;28;20020;-84
2022/07/22 01:17:04;;;;;;;8.13;2.97;;;17.00;97.70;;;;;;5095626;28;20393;-83
2022/07/22 01:19:30;;;;;;;3.40;3.10;;;17.00;97.70;;;;;;5095740;28;20099;-83
2022/07/22 01:21:56;;;;;;;4.05;2.53;;;17.00;97.70;;;;;;5095703;28;20028;-83
2022/07/22 01:24:22;;;;;;;5.32;2.78;;;17.00;97.70;;;;;;5074206;28;20424;-85
2022/07/22 01:26:48;;;;;;;5.80;3.20;;;16.90;97.70;;;;;;5094462;28;20652;-84
2022/07/22 01:29:14;;;;;;;3.90;3.03;;;16.90;97.80;;;;;;5078104;28;20032;-81
2022/07/22 01:31:39;;;;;;;3.67;2.45;;;16.90;97.90;;;;;;5076938;28;20058;-80
2022/07/22 01:34:05;;;;;;;4.18;3.33;;;16.90;98.00;;;;;;5095659;28;20117;-80
2022/07/22 01:36:31;;;;;;;4.90;2.67;;;16.90;98.00;;;;;;5076227;28;20414;-82
2022/07/22 01:38:57;;;;;;;4.47;3.08;;;16.90;98.10;;;;;;5086568;28;20104;-85
2022/07/22 01:41:23;;;;;;;5.88;3.28;;;16.90;98.10;;;;;;5079304;28;20478;-84
2022/07/22 01:43:49;;;;;;;3.92;2.88;;;16.90;98.10;;;;;;5094174;28;20460;-84
2022/07/22 01:46:16;;;;;;;3.65;2.85;;;16.90;98.00;;;;;;5080090;28;20416;-83
2022/07/22 01:48:42;;;;;;;3.50;3.20;;;17.00;98.00;;;;;;5088261;28;20070;-85
2022/07/22 01:51:08;;;;;;;3.15;2.72;;;17.10;97.80;;;;;;5076912;28;20059;-84
2022/07/22 01:53:34;;;;;;;7.05;3.50;;;17.10;97.80;;;;;;5094113;28;20055;-83
2022/07/22 01:56:00;;;;;;;4.82;3.05;;;17.10;97.70;;;;;;5085596;28;20473;-84
2022/07/22 01:58:26;;;;;;;5.90;2.83;;;17.10;97.60;;;;;;5085284;28;20073;-84
2022/07/22 02:00:52;;;;;;;4.63;3.28;;;17.20;97.60;;;;;;5089795;28;20101;-84
2022/07/22 02:03:18;;;;;;;5.07;2.80;;;17.20;97.50;;;;;;5080819;28;20040;-84
2022/07/22 02:05:45;;;;;;;3.33;2.80;;;17.20;97.50;;;;;;5078409;28;20499;-86
2022/07/22 02:08:12;;;;;;;3.28;2.85;;;17.20;97.80;;;;;;5080315;28;20056;-82
2022/07/22 02:10:38;;;;;;;7.43;3.45;;;17.20;97.60;;;;;;5077582;28;20052;-84
2022/07/22 02:13:04;;;;;;;4.88;2.90;;;17.20;97.50;;;;;;5089047;28;20504;-84
2022/07/22 02:15:30;;;;;;;5.07;3.20;;;17.20;97.40;;;;;;5081012;28;20515;-83
2022/07/22 02:17:56;;;;;;;5.13;2.92;;;17.30;97.40;;;;;;5097179;28;20032;-84
2022/07/22 02:20:22;;;;;;;4.18;2.95;;;17.30;97.40;;;;;;5108746;28;20016;-84
2022/07/22 02:22:48;;;;;;;4.75;2.67;;;17.30;97.30;;;;;;5096338;28;20043;-84
2022/07/22 02:25:14;;;;;;;3.95;3.58;;;17.30;97.20;;;;;;5083345;28;20209;-83
2022/07/22 02:27:41;;;;;;;4.80;2.85;;;17.30;97.20;;;;;;5076088;28;20035;-84
2022/07/22 02:30:08;;;;;;;5.05;2.50;;;17.40;97.20;;;;;;5089669;28;20028;-83
2022/07/22 02:32:35;;;;;;;3.40;3.00;;;17.30;97.20;;;;;;5092285;28;20035;-84
2022/07/22 02:35:01;;;;;;;3.77;3.13;;;17.30;97.20;;;;;;5093969;28;20113;-82
2022/07/22 02:37:27;;;;;;;3.55;3.05;;;17.40;97.50;;;;;;5092436;28;20154;-84
2022/07/22 02:39:53;;;;;;;3.72;2.63;;;17.40;97.20;;;;;;5094112;28;20480;-84
2022/07/22 02:42:19;;;;;;;3.40;2.80;;;17.40;97.10;;;;;;5088969;28;20020;-83
2022/07/22 02:44:45;;;;;;;7.30;3.78;;;17.40;97.10;;;;;;5081359;28;20165;-81
2022/07/22 02:47:22;;;;;;;8.50;3.40;;;17.50;97.10;;;;;;5085059;28;20107;-82
2022/07/22 02:49:48;;;;;;;6.47;2.85;;;17.50;97.00;;;;;;5087260;28;20059;-83
2022/07/22 02:52:14;;;;;;;5.25;3.17;;;17.50;97.00;;;;;;5092283;28;20020;-87
2022/07/22 02:54:40;;;;;;;3.38;2.78;;;17.60;97.00;;;;;;5095279;28;20032;-85
2022/07/22 02:57:06;;;;;;;6.07;3.20;;;17.60;96.90;;;;;;5071703;28;20085;-85
2022/07/22 02:59:31;;;;;;;4.22;2.80;;;17.70;96.70;;;;;;5085657;28;20027;-84
2022/07/22 03:01:57;;;;;;;3.20;2.90;;;17.80;96.50;;;;;;5071029;28;20472;-82
2022/07/22 03:04:23;;;;;;;4.97;2.88;;;17.80;96.20;;;;;;5087579;28;20047;-85
2022/07/22 03:06:49;;;;;;;4.00;3.08;;;17.80;96.20;;;;;;5081849;28;20016;-83
2022/07/22 03:09:15;;;;;;;4.15;3.13;;;17.80;96.00;;;;;;5086445;28;20056;-83
2022/07/22 03:11:40;;;;;;;6.72;2.90;;;17.80;96.00;;;;;;5073543;28;20037;-83
2022/07/22 03:14:06;;;;;;;4.70;2.50;;;17.80;96.10;;;;;;5088449;28;20052;-85
2022/07/22 03:16:32;;;;;;;5.20;3.00;;;17.80;96.50;;;;;;5085182;28;20024;-82
2022/07/22 03:18:58;;;;;;;5.63;2.65;;;17.90;96.20;;;;;;5080087;28;20021;-85
2022/07/22 03:21:24;;;;;;;6.40;3.28;;;18.00;96.10;;;;;;5083655;28;20026;-85
2022/07/22 03:23:53;;;;;;;4.93;2.58;;;18.10;95.90;;;;;;5093052;28;20036;-86
2022/07/22 03:26:23;;;;;;;5.05;3.30;;;18.10;95.70;;;;;;5081637;28;20016;-84
2022/07/22 03:28:56;;;;;;;5.55;3.28;;;18.10;95.50;;;;;;5087450;28;20119;-88
2022/07/22 03:31:22;;;;;;;3.17;2.88;;;18.10;95.80;;;;;;5087991;28;20061;-84
2022/07/22 03:33:47;;;;;;;3.13;2.65;;;18.10;95.60;;;;;;5092456;28;20048;-85
2022/07/22 03:36:13;;;;;;;3.75;2.90;;;18.10;95.60;;;;;;5095252;28;20025;-86
2022/07/22 03:38:39;;;;;;;3.35;2.47;;;18.10;95.60;;;;;;5076056;28;20021;-85
2022/07/22 03:41:05;;;;;;;7.20;3.20;;;18.20;95.60;;;;;;5080479;28;20017;-86
2022/07/22 03:43:31;;;;;;;5.50;2.97;;;18.30;95.50;;;;;;5092062;28;20040;-85
2022/07/22 03:45:57;;;;;;;4.78;2.95;;;18.50;95.30;;;;;;5089746;28;20016;-85
2022/07/22 03:48:23;;;;;;;9.82;2.45;;;18.50;95.00;;;;;;5090765;28;20144;-83
2022/07/22 03:50:49;;;;;;;4.25;3.05;;;18.60;94.80;;;;;;5091056;28;20016;-84
2022/07/22 03:53:15;;;;;;;5.43;3.30;;;18.60;94.70;;;;;;5090383;28;20046;-84
2022/07/22 03:55:41;;;;;;;3.60;3.03;;;18.60;94.80;;;;;;5090603;28;20063;-85
2022/07/22 03:58:07;;;;;;;4.00;2.88;;;18.60;94.80;;;;;;5087451;28;20048;-85
2022/07/22 04:00:33;;;;;;;4.35;3.20;;;18.70;94.70;;;;;;5090911;28;20062;-85
2022/07/22 04:02:59;;;;;;;5.45;2.75;;;18.80;94.70;;;;;;5088465;28;20535;-86
2022/07/22 04:05:25;;;;;;;3.85;2.85;;;18.80;94.40;;;;;;5089347;28;20024;-86
2022/07/22 04:07:51;;;;;;;3.72;2.70;;;18.80;94.80;;;;;;5088939;28;20142;-87
2022/07/22 04:10:17;;;;;;;4.45;2.80;;;18.80;94.50;;;;;;5087725;28;20073;-84
2022/07/22 04:12:42;;;;;;;3.85;2.60;;;18.80;94.30;;;;;;5090883;28;20055;-85
2022/07/22 04:15:09;;;;;;;3.95;2.38;;;18.80;94.20;;;;;;5088497;28;20169;-84
2022/07/22 04:17:35;;;;;;;4.30;2.60;;;18.80;94.00;;;;;;5094062;28;20024;-84
2022/07/22 04:20:01;;;;;;;3.22;2.90;;;18.90;94.20;;;;;;5094715;28;20032;-85
2022/07/22 04:22:28;;;;;;;4.15;2.75;;;18.90;94.20;;;;;;5088644;28;20027;-86
2022/07/22 04:24:54;;;;;;;6.32;2.70;;;19.00;93.90;;;;;;5082489;28;20047;-88
2022/07/22 04:27:20;;;;;;;5.03;3.05;;;19.10;93.70;;;;;;5078358;28;20525;-86
2022/07/22 04:29:45;;;;;;;2.55;2.33;;;19.10;94.00;;;;;;5085259;28;20029;-85
2022/07/22 04:32:11;;;;;;;4.55;3.08;;;19.20;93.70;;;;;;5074293;28;20078;-84
2022/07/22 04:34:37;;;;;;;6.50;3.17;;;19.20;93.70;;;;;;5079652;28;20445;-85
2022/07/22 04:37:03;;;;;;;3.30;2.67;;;19.30;93.40;;;;;;5081468;28;20546;-86
2022/07/22 04:39:29;;;;;;;3.50;2.95;;;19.40;93.40;;;;;;5073545;28;20386;-85
2022/07/22 04:41:55;;;;;;;3.38;2.72;;;19.50;92.90;;;;;;5082764;28;20028;-85
2022/07/22 04:44:21;;;;;;;3.67;2.75;;;19.60;92.70;;;;;;5091090;28;20102;-86
2022/07/22 04:46:47;;;;;;;4.15;3.13;;;19.70;92.80;;;;;;5071060;28;20036;-86
2022/07/22 04:49:13;;;;;;;3.92;2.80;;;19.80;92.60;;;;;;5072833;28;20024;-86
2022/07/22 04:51:39;;;;;;;7.72;3.00;;;19.90;92.30;;;;;;5084443;28;20059;-85
2022/07/22 04:54:04;;;;;;;6.78;2.40;;;20.00;92.20;;;;;;5094386;28;20024;-87
2022/07/22 04:56:30;;;;;;;4.68;2.33;;;20.10;91.90;;;;;;5094460;28;20532;-86
2022/07/22 04:58:56;;;;;;;3.88;2.45;;;20.10;91.90;;;;;;5095081;28;20027;-87
2022/07/22 05:01:22;;;;;;;5.65;2.55;;;20.20;91.30;;;;;;5092129;28;20024;-86
2022/07/22 05:03:48;;;;;;;2.83;2.28;;;20.20;91.50;;;;;;5093520;28;20039;-86
2022/07/22 05:06:14;;;;;;;4.53;2.53;;;20.30;91.30;;;;;;5093030;28;20103;-86
2022/07/22 05:08:40;;;;;;;6.10;2.88;;;20.50;91.30;;;;;;5092617;28;20107;-86
2022/07/22 05:11:07;;;;;;;4.15;2.30;;;21.00;90.00;;;;;;5093089;28;20438;-86
2022/07/22 05:13:33;;;;;;;3.67;1.73;;;21.60;87.50;;;;;;5096211;28;20028;-84
2022/07/22 05:16:03;;;;;;;9.90;3.50;;;22.20;85.20;;;;;;5110184;28;20034;-86
2022/07/22 05:18:29;;;;;;;6.32;2.65;;;22.80;83.30;;;;;;5105017;28;20110;-86
2022/07/22 05:20:55;;;;;;;6.90;2.45;;;23.30;80.00;;;;;;5077458;28;20058;-86
2022/07/22 05:23:21;;;;;;;4.43;2.40;;;23.60;78.80;;;;;;5091793;28;20044;-84
2022/07/22 05:25:47;;;;;;;7.97;2.47;;;24.10;76.80;;;;;;5093063;28;20012;-87
2022/07/22 05:28:13;;;;;;;4.47;2.67;;;24.90;73.80;;;;;;5094154;28;20076;-86
2022/07/22 05:30:39;;;;;;;2.92;1.60;;;25.60;72.10;;;;;;5079918;28;20040;-85
2022/07/22 05:33:05;;;;;;;3.88;2.22;;;26.40;69.30;;;;;;5092958;28;20028;-87
2022/07/22 05:35:30;;;;;;;6.55;2.20;;;27.00;66.20;;;;;;5079596;28;20027;-87
2022/07/22 05:37:56;;;;;;;3.03;2.22;;;27.40;64.80;;;;;;5091761;28;20063;-86
2022/07/22 05:40:22;;;;;;;2.70;1.98;;;27.40;62.80;;;;;;5092751;28;20020;-86
2022/07/22 05:42:51;;;;;;;6.90;2.03;;;27.30;63.30;;;;;;5091985;28;20082;-87
2022/07/22 05:45:17;;;;;;;4.13;2.08;;;27.40;62.90;;;;;;5085179;28;20027;-88
2022/07/22 05:47:43;;;;;;;2.83;2.20;;;27.70;62.20;;;;;;5075363;28;20389;-86
2022/07/22 05:50:09;;;;;;;2.38;1.63;;;28.20;60.80;;;;;;5083832;28;20023;-87
2022/07/22 05:52:36;;;;;;;3.47;2.42;;;28.60;60.00;;;;;;5094206;28;20032;-86
2022/07/22 05:55:02;;;;;;;;;;;29.00;58.90;;;;;;5090364;28;20492;-85
2022/07/22 05:57:28;;;;;;;6.00;2.43;;;29.40;59.80;;;;;;5076458;28;19904;-87
2022/07/22 05:59:54;;;;;;;5.25;2.00;;;29.80;56.80;;;;;;5090862;28;20013;-86
2022/07/22 06:02:20;;;;;;;3.22;2.42;;;29.60;56.10;;;;;;5076195;28;20028;-86
2022/07/22 06:04:46;;;;;;;6.22;2.13;;;29.90;55.30;;;;;;5090365;28;20036;-87
2022/07/22 06:07:12;;;;;;;4.17;2.00;;;30.40;53.70;;;;;;5083446;28;20024;-86
2022/07/22 06:09:38;;;;;;;8.05;2.22;;;30.60;53.40;;;;;;5092372;28;20378;-86
2022/07/22 06:12:05;;;;;;;3.10;2.08;;;31.50;51.90;;;;;;5100830;28;20036;-85
2022/07/22 06:14:31;;;;;;;2.92;1.83;;;32.00;50.90;;;;;;5094054;28;20024;-87
2022/07/22 06:16:57;;;;;;;4.77;2.20;;;32.70;49.60;;;;;;5111968;28;20016;-85
2022/07/22 06:19:24;;;;;;;10.13;2.47;;;32.60;48.60;;;;;;5109366;28;20464;-86
2022/07/22 06:21:50;;;;;;;4.43;2.20;;;32.20;49.10;;;;;;5096139;28;20020;-86
2022/07/22 06:24:16;;;;;;;4.88;2.30;;;32.60;49.00;;;;;;5102344;28;20036;-87
2022/07/22 06:26:43;;;;;;;5.67;2.30;;;32.70;47.90;;;;;;5104087;28;20024;-86
2022/07/22 06:29:09;;;;;;;4.60;2.55;;;32.90;48.50;;;;;;5103069;28;20039;-86
2022/07/22 06:31:34;;;;;;;5.47;2.20;;;32.90;47.60;;;;;;5093013;28;20028;-85
2022/07/22 06:34:05;;;;;;;5.93;2.33;;;33.00;48.00;;;;;;5090173;28;20024;-84
2022/07/22 06:36:32;;;;;;;5.47;1.88;;;33.20;47.20;;;;;;5097074;28;20415;-86
2022/07/22 06:38:58;;;;;;;5.85;2.20;;;33.90;46.40;;;;;;5076501;28;20374;-85
2022/07/22 06:41:24;;;;;;;4.03;1.90;;;34.70;45.30;;;;;;5094571;28;20095;-86
2022/07/22 06:43:50;;;;;;;5.60;2.10;;;35.90;44.10;;;;;;5094593;28;20043;-85
2022/07/22 06:46:16;;;;;;;5.63;2.40;;;36.50;42.70;;;;;;5094035;28;20536;-86
2022/07/22 06:48:42;;;;;;;4.32;1.90;;;36.60;41.30;;;;;;5076897;28;20085;-85
2022/07/22 06:51:08;;;;;;;4.30;1.97;;;35.90;41.60;;;;;;5095170;28;20031;-86
2022/07/22 06:53:34;;;;;;;4.13;1.90;;;35.40;42.30;;;;;;5094983;28;20264;-85
2022/07/22 06:56:00;;;;;;;2.88;1.30;;;35.50;42.80;;;;;;5094826;28;20078;-85
2022/07/22 06:58:26;;;;;;;6.47;2.53;;;36.10;42.00;;;;;;5094148;28;20051;-85
2022/07/22 07:00:51;;;;;;;4.07;1.98;;;35.70;41.80;;;;;;5093821;28;20020;-86
2022/07/22 07:03:17;;;;;;;3.33;1.87;;;35.20;42.50;;;;;;5093599;28;20468;-87
2022/07/22 07:05:43;;;;;;;3.20;1.73;;;35.80;42.50;;;;;;5094055;28;20077;-86
2022/07/22 07:08:09;;;;;;;3.27;1.90;;;36.50;41.10;;;;;;5093676;28;20032;-86
2022/07/22 07:10:35;;;;;;;3.77;1.80;;;35.90;40.70;;;;;;5094018;28;20252;-85
2022/07/22 07:13:01;;;;;;;6.10;1.80;;;35.50;42.20;;;;;;5093430;28;20389;-86
2022/07/22 07:15:27;;;;;;;4.93;2.07;;;35.50;41.80;;;;;;5093750;28;20103;-85
2022/07/22 07:17:55;;;;;;;2.97;1.48;;;35.60;41.50;;;;;;5075510;28;20280;-85
2022/07/22 07:20:21;;;;;;;3.10;1.55;;;36.00;41.50;;;;;;5070508;28;20017;-85
2022/07/22 07:22:46;;;;;;;3.90;1.73;;;36.00;40.50;;;;;;5076730;28;20038;-86
2022/07/22 07:25:12;;;;;;;7.80;1.80;;;35.90;40.90;;;;;;5073808;28;20025;-85
2022/07/22 07:27:38;;;;;;;2.00;1.37;;;35.40;40.70;;;;;;5072899;28;20268;-85
2022/07/22 07:30:05;;;;;;;5.83;1.70;;;35.30;41.20;;;;;;5055083;28;20261;-86
2022/07/22 07:32:31;;;;;;;5.15;2.25;;;34.60;42.20;;;;;;5074903;28;20036;-87
2022/07/22 07:34:57;;;;;;;4.07;2.13;;;34.80;42.60;;;;;;5071470;28;20552;-85
2022/07/22 07:37:23;;;;;;;4.10;1.83;;;35.40;41.50;;;;;;5072364;28;20104;-85
2022/07/22 07:39:49;;;;;;;3.95;1.70;;;35.30;41.40;;;;;;5073343;28;20023;-84
2022/07/22 07:42:15;;;;;;;3.78;1.50;;;36.00;40.40;;;;;;5073490;28;20036;-86
2022/07/22 07:44:41;;;;;;;3.67;2.00;;;35.00;40.70;;;;;;5096437;28;20035;-85
2022/07/22 07:47:06;;;;;;;7.53;2.13;;;33.30;42.50;;;;;;5093654;28;20016;-84
2022/07/22 07:49:32;;;;;;;5.67;1.90;;;32.10;45.10;;;;;;5092983;28;20031;-86
2022/07/22 07:51:58;;;;;;;3.13;1.90;;;31.50;46.00;;;;;;5082678;28;20024;-86
2022/07/22 07:54:24;;;;;;;3.80;2.08;;;30.80;46.70;;;;;;5092700;28;20058;-86
2022/07/22 07:56:50;;;;;;;4.13;2.13;;;30.00;48.40;;;;;;5092804;28;20464;-87
2022/07/22 07:59:16;;;;;;;4.38;1.50;;;29.50;49.20;;;;;;5092954;28;20056;-86
2022/07/22 08:01:43;;;;;;;2.70;1.40;;;30.70;48.50;;;;;;5092741;28;20020;-88
2022/07/22 08:04:09;;;;;;;5.05;2.30;;;32.20;46.00;;;;;;5092485;28;20095;-86
2022/07/22 08:06:34;;;;;;;3.17;2.00;;;33.00;44.50;;;;;;5042283;28;20132;-85
2022/07/22 08:09:00;;;;;;;2.47;1.77;;;33.60;44.20;;;;;;5072589;28;20470;-85
2022/07/22 08:11:26;;;;;;;5.50;1.90;;;34.80;42.70;;;;;;5078200;28;20048;-86
2022/07/22 08:13:52;;;;;;;2.30;1.40;;;36.40;40.70;;;;;;5092793;28;20102;-86
2022/07/22 08:16:18;;;;;;;2.40;1.65;;;37.00;39.50;;;;;;5093377;28;20264;-85
2022/07/22 08:18:44;;;;;;;4.63;2.08;;;37.40;38.50;;;;;;5091039;28;20031;-85
2022/07/22 08:21:09;;;;;;;4.45;2.10;;;36.20;38.50;;;;;;5078935;28;20023;-86
2022/07/22 08:23:35;;;;;;;6.05;3.47;;;35.50;40.70;;;;;;5092020;28;20043;-85
2022/07/22 08:26:01;;;;;;;4.45;2.05;;;36.30;39.70;;;;;;5074021;28;20059;-86
2022/07/22 08:28:27;;;;;;;3.90;1.88;;;37.60;38.30;;;;;;5091994;28;20036;-86
2022/07/22 08:30:53;;;;;;;5.63;2.03;;;36.90;38.30;;;;;;5092052;28;20041;-85
2022/07/22 08:33:19;;;;;;;2.80;1.80;;;37.60;38.40;;;;;;5074258;28;20050;-85
2022/07/22 08:35:45;;;;;;;3.55;1.92;;;38.20;37.20;;;;;;5088035;28;20028;-86
2022/07/22 08:38:11;;;;;;;3.00;1.40;;;39.00;36.30;;;;;;5093086;28;20031;-86
2022/07/22 08:40:37;;;;;;;3.88;1.77;;;38.80;36.30;;;;;;5092216;28;20100;-87
2022/07/22 08:43:04;;;;;;;2.65;1.92;;;38.20;35.80;;;;;;5055292;28;20044;-85
2022/07/22 08:45:31;;;;;;;7.18;2.58;;;37.30;36.30;;;;;;5075637;28;20112;-85
2022/07/22 08:47:59;;;;;;;7.10;2.00;;;36.20;37.70;;;;;;5075056;28;20024;-85
2022/07/22 08:50:25;;;;;;;2.97;1.20;;;36.00;38.60;;;;;;5091514;28;20069;-86
2022/07/22 08:52:50;;;;;;;4.22;1.48;;;36.20;37.80;;;;;;5070245;28;20043;-84
2022/07/22 08:55:16;;;;;;;5.10;2.10;;;34.70;39.10;;;;;;5069605;28;20030;-85
2022/07/22 08:57:47;;;;;;;3.63;1.65;;;33.70;39.60;;;;;;5078137;28;20034;-85
2022/07/22 09:00:15;;;;;;;3.03;1.88;;;33.00;41.10;;;;;;5047320;28;20024;-87
2022/07/22 09:02:42;;;;;;;3.92;1.45;;;32.70;42.50;;;;;;5093184;28;20043;-86
2022/07/22 09:05:13;;;;;;;3.90;1.77;;;33.60;41.90;;;;;;5093043;28;20020;-86
2022/07/22 09:07:41;;;;;;;3.78;1.63;;;35.30;40.20;;;;;;5091827;28;20027;-84
2022/07/22 09:10:09;;;;;;;2.67;1.30;;;36.80;37.90;;;;;;5093100;28;20024;-86
2022/07/22 09:12:58;;;;;;;2.85;1.55;;;37.10;37.30;;;;;;5092329;28;20048;-85
2022/07/22 09:15:48;;;;;;;5.72;1.50;;;37.50;42.40;;;;;;5063468;28;20026;-85
2022/07/22 09:18:14;;;;;;;2.70;1.83;;;37.10;37.10;;;;;;5093314;28;20436;-87
2022/07/22 09:20:40;;;;;;;3.10;1.27;;;37.60;36.70;;;;;;5081199;28;20059;-85
2022/07/22 09:23:12;;;;;;;4.55;1.83;;;37.70;36.00;;;;;;5078503;28;20040;-87
2022/07/22 09:25:39;;;;;;;4.03;2.33;;;37.90;35.90;;;;;;5095533;28;20020;-86
2022/07/22 09:28:05;;;;;;;3.60;2.00;;;37.60;36.00;;;;;;5097285;28;20053;-84
2022/07/22 09:30:33;;;;;;;3.60;1.65;;;37.00;36.20;;;;;;5104475;28;20047;-86
2022/07/22 09:32:58;;;;;;;3.03;2.10;;;36.20;36.90;;;;;;5093588;28;20024;-85
2022/07/22 09:35:24;;;;;;;4.97;1.73;;;35.20;37.60;;;;;;5083172;28;20025;-87
2022/07/22 09:37:53;;;;;;;2.65;1.45;;;34.20;39.10;;;;;;5090730;28;20062;-86
2022/07/22 09:40:22;;;;;;;3.20;1.80;;;34.20;39.50;;;;;;5079690;28;20488;-85
2022/07/22 09:42:58;;;;;;;3.88;1.52;;;34.10;38.90;;;;;;5046251;28;20499;-87
2022/07/22 09:45:26;;;;;;;3.72;1.20;;;33.80;40.00;;;;;;5096316;28;20030;-85
2022/07/22 09:47:54;;;;;;;3.88;2.05;;;34.10;39.60;;;;;;5094637;28;20076;-84
2022/07/22 09:50:30;;;;;;;4.72;1.60;;;35.00;39.30;;;;;;5084377;28;20024;-87
2022/07/22 09:52:57;;;;;;;;;;;35.80;38.10;;;;;;5094088;28;20032;-85
2022/07/22 09:55:25;;;;;;;5.88;2.17;;;35.90;37.80;;;;;;5086472;28;19904;-87
2022/07/22 09:57:53;;;;;;;1.63;1.30;;;34.60;39.20;;;;;;5090359;28;20028;-85
2022/07/22 10:00:21;;;;;;;2.15;1.65;;;34.80;39.10;;;;;;5096367;28;20467;-86
2022/07/22 10:02:48;;;;;;;4.97;1.70;;;33.80;39.30;;;;;;5096233;28;20032;-85
2022/07/22 10:05:17;;;;;;;1.60;1.33;;;32.40;41.30;;;;;;5092103;28;20028;-84
2022/07/22 10:07:44;;;;;;;3.78;1.27;;;32.30;41.70;;;;;;5093435;28;20020;-87
2022/07/22 10:10:16;;;;;;;3.47;1.80;;;33.50;41.20;;;;;;5104047;28;20018;-85
2022/07/22 10:12:43;;;;;;;5.40;1.70;;;34.40;39.60;;;;;;5095434;28;20083;-85
2022/07/22 10:15:09;;;;;;;;;;;33.90;39.80;;;;;;5095473;28;20081;-86
2022/07/22 10:17:42;;;;;;;4.25;1.70;;;33.30;40.70;;;;;;5095458;28;19957;-85
2022/07/22 10:20:10;;;;;;;3.80;1.88;;;32.20;41.70;;;;;;5078246;28;20481;-86
2022/07/22 10:22:38;;;;;;;2.70;2.03;;;30.90;43.10;;;;;;5094002;28;20046;-86
2022/07/22 10:25:09;;;;;;;6.18;1.83;;;30.00;45.60;;;;;;5072974;28;20060;-87
2022/07/22 10:27:48;;;;;;;7.63;2.13;;;29.40;47.00;;;;;;5091113;28;20480;-85
2022/07/22 10:30:20;;;;;;;3.22;1.50;;;30.70;46.10;;;;;;5094250;28;20048;-87
2022/07/22 10:33:01;;;;;;;1.95;1.40;;;32.50;42.50;;;;;;5083210;28;20095;-88
2022/07/22 10:35:27;;;;;;;4.97;2.03;;;33.00;41.10;;;;;;5098105;28;20020;-87
2022/07/22 10:37:55;;;;;;;4.93;1.73;;;32.50;41.70;;;;;;5090722;28;20492;-88
2022/07/22 10:40:24;;;;;;;2.47;1.65;;;31.30;42.50;;;;;;5087339;28;20062;-86
2022/07/22 10:43:06;;;;;;;5.70;1.95;;;30.10;44.50;;;;;;5090584;28;20021;-87
2022/07/22 10:45:59;;;;;;;2.03;1.55;;;29.10;46.60;;;;;;5085919;28;20020;-87
2022/07/22 10:48:45;;;;;;;2.72;2.20;;;28.20;47.50;;;;;;5091620;28;20127;-87
2022/07/22 10:51:14;;;;;;;2.28;1.98;;;28.10;48.70;;;;;;5080015;28;20012;-87
2022/07/22 10:53:58;;;;;;;11.07;2.33;;;28.20;48.30;;;;;;5093661;28;20028;-87
2022/07/22 10:56:38;;;;;;;2.60;1.90;;;28.40;48.50;;;;;;5093982;28;20019;-85
2022/07/22 10:59:10;;;;;;;4.43;1.98;;;28.30;47.90;;;;;;5076320;28;20028;-84
2022/07/22 11:01:38;;;;;;;2.63;1.80;;;28.10;48.20;;;;;;5090653;28;20688;-85
2022/07/22 11:04:10;;;;;;;3.63;1.52;;;27.80;48.90;;;;;;5084873;28;20032;-86
2022/07/22 11:06:36;;;;;;;3.55;2.08;;;27.60;49.60;;;;;;5094930;28;20019;-86
2022/07/22 11:09:05;;;;;;;3.75;2.38;;;27.40;50.50;;;;;;5079146;28;20028;-85
2022/07/22 11:11:33;;;;;;;3.35;2.13;;;27.30;50.50;;;;;;5046613;28;20072;-87
2022/07/22 11:14:18;;;;;;;6.15;2.10;;;27.40;50.30;;;;;;5056147;28;20186;-87
2022/07/22 11:16:45;;;;;;;7.45;2.47;;;27.30;50.00;;;;;;5073601;28;20362;-85
2022/07/22 11:19:11;;;;;;;2.95;2.00;;;27.30;50.00;;;;;;5055184;28;20457;-86
2022/07/22 11:21:37;;;;;;;4.10;2.70;;;27.20;50.10;;;;;;5055586;28;20029;-86
2022/07/22 11:24:06;;;;;;;3.28;2.08;;;27.20;50.70;;;;;;5055645;28;20457;-87
2022/07/22 11:26:43;;;;;;;8.13;3.58;;;27.30;50.20;;;;;;5074530;28;20017;-86
2022/07/22 11:29:10;;;;;;;2.40;1.90;;;27.40;50.00;;;;;;5074483;28;20478;-86
2022/07/22 11:31:37;;;;;;;3.57;2.10;;;27.40;49.30;;;;;;5078188;28;20143;-88
2022/07/22 11:34:12;;;;;;;4.18;2.28;;;27.30;49.40;;;;;;5074984;28;20035;-86
2022/07/22 11:36:41;;;;;;;5.43;2.38;;;27.30;50.10;;;;;;5073169;28;20104;-87
2022/07/22 11:39:08;;;;;;;3.97;2.17;;;27.10;49.90;;;;;;5073022;28;20148;-88
2022/07/22 11:41:35;;;;;;;7.07;1.88;;;27.10;50.40;;;;;;5073759;28;20020;-87
2022/07/22 11:44:02;;;;;;;5.72;2.33;;;27.10;50.10;;;;;;5073725;28;20043;-87
2022/07/22 11:46:28;;;;;;;6.65;2.38;;;27.00;50.00;;;;;;5073182;28;20493;-87
2022/07/22 11:48:58;;;;;;;6.00;2.43;;;27.10;50.60;;;;;;5073811;28;20486;-86
2022/07/22 11:51:30;;;;;;;4.80;2.05;;;27.40;50.40;;;;;;5072548;28;20021;-88
2022/07/22 11:53:56;;;;;;;5.90;2.17;;;27.40;50.00;;;;;;5073614;28;20084;-87
2022/07/22 11:56:22;;;;;;;3.50;2.07;;;27.40;50.60;;;;;;5072979;28;20024;-86
2022/07/22 11:58:49;;;;;;;5.15;2.15;;;27.50;49.70;;;;;;5073476;28;20086;-86
2022/07/22 12:01:17;;;;;;;3.65;2.55;;;27.50;49.50;;;;;;5073968;28;20028;-86
2022/07/22 12:03:50;;;;;;;11.30;2.40;;;27.50;49.40;;;;;;5073717;28;20543;-86
2022/07/22 12:06:18;;;;;;;3.95;2.05;;;27.40;49.40;;;;;;5078025;28;20096;-86
2022/07/22 12:08:50;;;;;;;5.72;2.10;;;27.30;49.50;;;;;;5077641;28;20020;-86
2022/07/22 12:11:18;;;;;;;2.58;1.95;;;27.10;50.20;;;;;;5090392;28;20090;-86
2022/07/22 12:13:48;;;;;;;5.55;2.47;;;26.90;50.30;;;;;;5109759;28;20020;-86
2022/07/22 12:16:26;;;;;;;7.60;2.55;;;26.80;51.00;;;;;;5111500;28;20046;-86
2022/07/22 12:19:00;;;;;;;6.20;2.28;;;26.90;51.10;;;;;;5106373;28;20050;-86
2022/07/22 12:21:32;;;;;;;3.95;2.00;;;27.00;50.50;;;;;;5096278;28;20024;-85
2022/07/22 12:24:05;;;;;;;4.07;2.40;;;27.10;50.20;;;;;;5095747;28;20085;-86
2022/07/22 12:26:47;;;;;;;3.08;2.00;;;27.00;49.70;;;;;;5099286;28;20016;-87
2022/07/22 12:29:41;;;;;;;5.95;2.80;;;27.00;49.90;;;;;;5089417;28;20438;-87
2022/07/22 12:32:23;;;;;;;3.80;2.58;;;27.00;50.10;;;;;;5089450;28;20052;-87
2022/07/22 12:34:55;;;;;;;10.10;3.22;;;27.00;50.30;;;;;;5074733;28;20035;-86
2022/07/22 12:37:24;;;;;;;8.07;2.40;;;27.00;50.60;;;;;;5090656;28;20108;-85
2022/07/22 12:39:52;;;;;;;6.35;2.40;;;26.90;50.60;;;;;;5096821;28;20036;-85
2022/07/22 12:42:22;;;;;;;4.72;2.40;;;26.90;50.90;;;;;;5095049;28;20099;-86
2022/07/22 12:44:52;;;;;;;6.40;2.35;;;26.80;50.60;;;;;;5072771;28;20482;-87
2022/07/22 12:47:37;;;;;;;6.13;2.15;;;26.80;51.10;;;;;;5091844;28;20412;-87
2022/07/22 12:50:26;;;;;;;5.15;2.08;;;26.80;51.20;;;;;;5081507;28;20052;-87